createdAt,value
2022-11-17T00:00:44.580Z,98830.94
2022-11-17T00:03:16.408Z,98832.03
2022-11-17T00:05:44.880Z,98829.56
2022-11-17T00:08:12.453Z,98828.56
2022-11-17T00:10:39.790Z,98823.31
2022-11-17T00:13:33.482Z,98795.56
2022-11-17T00:16:01.149Z,98807.09
2022-11-17T00:18:46.864Z,98818.09
2022-11-17T00:21:21.419Z,98836.69
2022-11-17T00:23:50.875Z,98824.94
2022-11-17T00:26:27.361Z,98834.25
2022-11-17T00:28:56.744Z,98835.97
2022-11-17T00:31:44.201Z,98807.19
2022-11-17T00:34:17.117Z,98826.66
2022-11-17T00:36:52.894Z,98839.16
2022-11-17T00:39:22.168Z,98846.00
2022-11-17T00:41:49.944Z,98851.88
2022-11-17T00:44:17.398Z,98826.06
2022-11-17T00:46:44.739Z,98812.69
2022-11-17T00:49:12.757Z,98852.63
2022-11-17T00:51:40.339Z,98850.75
2022-11-17T00:54:11.031Z,98805.31
2022-11-17T00:56:38.359Z,98836.63
2022-11-17T00:59:05.936Z,98832.31
2022-11-17T01:01:33.353Z,98824.03
2022-11-17T01:04:04.415Z,98849.59
2022-11-17T01:06:40.725Z,98851.78
2022-11-17T01:09:12.632Z,98829.88
2022-11-17T01:11:41.409Z,98829.19
2022-11-17T01:14:13.035Z,98857.78
2022-11-17T01:16:41.030Z,98850.09
2022-11-17T01:19:08.890Z,98840.09
2022-11-17T01:21:36.271Z,98849.59
2022-11-17T01:24:04.083Z,98824.44
2022-11-17T01:26:34.742Z,98856.09
2022-11-17T01:29:03.962Z,98867.19
2022-11-17T01:31:37.599Z,98873.22
2022-11-17T01:34:05.749Z,98855.59
2022-11-17T01:36:57.494Z,98886.41
2022-11-17T01:39:26.286Z,98894.47
2022-11-17T01:41:54.726Z,98897.41
2022-11-17T01:44:44.572Z,98898.94
2022-11-17T01:47:15.422Z,98887.50
2022-11-17T01:49:42.890Z,98858.63
2022-11-17T01:52:11.823Z,98873.72
2022-11-17T01:54:42.227Z,98859.19
2022-11-17T01:57:26.310Z,98857.19
2022-11-17T02:00:04.711Z,98872.00
2022-11-17T02:02:34.502Z,98865.16
2022-11-17T02:05:13.599Z,98860.00
2022-11-17T02:07:43.881Z,98835.75
2022-11-17T02:10:11.303Z,98847.78
2022-11-17T02:12:38.741Z,98857.19
2022-11-17T02:15:06.550Z,98828.91
2022-11-17T02:17:40.434Z,98852.66
2022-11-17T02:20:08.390Z,98867.00
2022-11-17T02:22:44.794Z,98865.28
2022-11-17T02:25:41.085Z,98854.19
2022-11-17T02:28:25.115Z,98857.91
2022-11-17T02:31:07.747Z,98875.94
2022-11-17T02:33:48.046Z,98881.78
2022-11-17T02:36:22.951Z,98845.72
2022-11-17T02:38:58.136Z,98843.41
2022-11-17T02:41:32.897Z,98879.56
2022-11-17T02:44:19.609Z,98901.19
2022-11-17T02:46:53.759Z,98850.75
2022-11-17T02:49:26.095Z,98864.47
2022-11-17T02:51:56.419Z,98865.22
2022-11-17T02:54:26.893Z,98876.09
2022-11-17T02:56:54.615Z,98894.53
2022-11-17T02:59:49.202Z,98898.69
2022-11-17T03:02:21.573Z,98861.44
2022-11-17T03:05:13.409Z,98897.78
2022-11-17T03:08:02.194Z,98899.38
2022-11-17T03:10:44.703Z,98901.16
2022-11-17T03:13:20.939Z,98907.41
2022-11-17T03:15:53.923Z,98903.94
2022-11-17T03:18:35.199Z,98908.50
2022-11-17T03:21:48.588Z,98872.69
2022-11-17T03:24:25.035Z,98895.22
2022-11-17T03:27:00.524Z,98892.16
2022-11-17T03:29:30.649Z,98898.00
2022-11-17T03:32:02.192Z,98898.94
2022-11-17T03:34:35.609Z,98894.84
2022-11-17T03:37:07.102Z,98912.81
2022-11-17T03:39:37.659Z,98905.97
2022-11-17T03:42:17.378Z,98883.75
2022-11-17T03:44:50.642Z,98902.88
2022-11-17T03:47:20.921Z,98907.88
2022-11-17T03:49:59.734Z,98869.78
2022-11-17T03:52:29.713Z,98880.34
2022-11-17T03:54:57.559Z,98900.69
2022-11-17T03:57:54.914Z,98900.75
2022-11-17T04:00:22.354Z,98871.09
2022-11-17T04:02:55.615Z,98847.47
2022-11-17T04:05:22.935Z,98864.13
2022-11-17T04:07:50.403Z,98872.44
2022-11-17T04:10:20.331Z,98868.19
2022-11-17T04:13:06.666Z,98891.75
2022-11-17T04:15:53.042Z,98898.31
2022-11-17T04:18:20.943Z,98892.13
2022-11-17T04:20:53.737Z,98899.16
2022-11-17T04:23:21.594Z,98904.66
2022-11-17T04:26:12.718Z,98904.81
2022-11-17T04:28:43.923Z,98913.34
2022-11-17T04:31:21.170Z,98925.81
2022-11-17T04:33:49.660Z,98901.63
2022-11-17T04:36:23.487Z,98946.16
2022-11-17T04:38:53.464Z,98945.78
2022-11-17T04:41:40.506Z,98938.69
2022-11-17T04:44:09.510Z,98935.06
2022-11-17T04:46:38.131Z,98942.34
2022-11-17T04:49:06.255Z,98934.25
2022-11-17T04:51:34.623Z,98931.91
2022-11-17T04:54:03.190Z,98939.94
2022-11-17T04:56:30.581Z,98928.06
2022-11-17T04:58:58.042Z,98949.44
2022-11-17T05:01:27.595Z,98951.72
2022-11-17T05:03:57.600Z,98915.75
2022-11-17T05:06:26.284Z,98954.13
2022-11-17T05:08:57.931Z,98949.91
2022-11-17T05:11:47.130Z,98956.19
2022-11-17T05:14:16.692Z,98917.88
2022-11-17T05:17:08.636Z,98938.28
2022-11-17T05:19:38.454Z,98947.94
2022-11-17T05:22:25.325Z,98954.09
2022-11-17T05:24:53.010Z,98956.19
2022-11-17T05:27:21.029Z,98929.63
2022-11-17T05:29:48.539Z,98944.25
2022-11-17T05:32:15.902Z,98969.91
2022-11-17T05:34:43.206Z,98947.22
2022-11-17T05:37:10.587Z,98933.97
2022-11-17T05:39:37.969Z,98974.44
2022-11-17T05:42:05.470Z,98980.19
2022-11-17T05:44:33.178Z,98983.59
2022-11-17T05:47:00.931Z,98969.88
2022-11-17T05:49:28.180Z,98974.38
2022-11-17T05:51:55.483Z,98971.56
2022-11-17T05:54:22.964Z,98987.16
2022-11-17T05:56:54.763Z,98993.53
2022-11-17T05:59:37.418Z,98970.94
2022-11-17T06:02:17.954Z,99014.00
2022-11-17T06:04:46.425Z,99001.13
2022-11-17T06:07:14.054Z,99018.81
2022-11-17T06:09:42.573Z,99029.44
2022-11-17T06:12:12.028Z,99006.78
2022-11-17T06:14:39.856Z,99033.28
2022-11-17T06:17:23.195Z,99046.00
2022-11-17T06:19:58.621Z,99019.63
2022-11-17T06:22:26.960Z,99042.13
2022-11-17T06:24:55.173Z,99025.66
2022-11-17T06:27:23.046Z,99032.56
2022-11-17T06:29:50.428Z,99044.13
2022-11-17T06:32:19.520Z,99031.53
2022-11-17T06:34:55.217Z,99049.41
2022-11-17T06:37:24.950Z,99056.47
2022-11-17T06:39:52.988Z,99058.06
2022-11-17T06:42:40.222Z,99075.59
2022-11-17T06:45:08.192Z,99064.09
2022-11-17T06:47:35.548Z,99067.78
2022-11-17T06:50:03.218Z,99052.41
2022-11-17T06:52:30.535Z,99078.13
2022-11-17T06:54:57.899Z,99024.34
2022-11-17T06:57:25.310Z,99050.47
2022-11-17T06:59:52.837Z,99039.44
2022-11-17T07:02:20.504Z,99083.66
2022-11-17T07:04:47.797Z,99058.72
2022-11-17T07:07:15.302Z,99069.38
2022-11-17T07:09:42.553Z,99056.03
2022-11-17T07:12:09.772Z,99081.38
2022-11-17T07:14:37.274Z,99060.41
2022-11-17T07:17:04.446Z,99072.31
2022-11-17T07:19:31.669Z,99019.50
2022-11-17T07:21:58.945Z,99051.81
2022-11-17T07:24:26.168Z,98940.75
2022-11-17T07:26:53.370Z,99062.56
2022-11-17T07:29:20.730Z,99044.13
2022-11-17T07:31:47.929Z,99058.84
2022-11-17T07:34:15.165Z,99042.47
2022-11-17T07:36:42.426Z,99042.34
2022-11-17T07:39:09.708Z,99049.81
2022-11-17T07:41:36.880Z,99048.91
2022-11-17T07:44:04.285Z,99017.84
2022-11-17T07:46:31.467Z,99014.31
2022-11-17T07:48:58.713Z,98978.66
2022-11-17T07:51:26.403Z,99026.00
2022-11-17T07:53:53.654Z,98994.69
2022-11-17T07:56:20.946Z,99013.69
2022-11-17T07:58:48.318Z,99071.50
2022-11-17T08:01:15.748Z,99021.63
2022-11-17T08:03:43.929Z,99077.72
2022-11-17T08:06:11.466Z,99050.50
2022-11-17T08:08:39.177Z,98988.88
2022-11-17T08:11:09.022Z,99074.28
2022-11-17T08:13:37.032Z,99060.81
2022-11-17T08:16:04.640Z,99056.50
2022-11-17T08:18:32.796Z,99066.22
2022-11-17T08:21:07.313Z,99061.41
2022-11-17T08:23:35.241Z,99066.81
2022-11-17T08:26:03.713Z,99068.75
2022-11-17T08:28:31.403Z,99053.38
2022-11-17T08:31:01.925Z,99071.13
2022-11-17T08:33:29.388Z,99049.94
2022-11-17T08:36:01.042Z,99041.84
2022-11-17T08:38:31.057Z,99071.69
2022-11-17T08:40:59.401Z,98998.72
2022-11-17T08:43:27.574Z,99068.81
2022-11-17T08:45:54.805Z,99034.81
2022-11-17T08:48:22.045Z,99071.53
2022-11-17T08:50:49.991Z,99052.22
2022-11-17T08:53:19.567Z,99046.47
2022-11-17T08:55:46.910Z,99064.09
2022-11-17T08:58:14.165Z,99017.88
2022-11-17T09:00:42.462Z,98889.53
2022-11-17T09:03:10.905Z,99020.66
2022-11-17T09:05:44.219Z,99067.19
2022-11-17T09:08:44.044Z,99058.88
2022-11-17T09:11:05.700Z,99083.88
2022-11-17T09:13:33.676Z,99069.56
2022-11-17T09:16:09.927Z,99078.44
2022-11-17T09:18:38.409Z,99027.75
2022-11-17T09:21:09.429Z,99024.69
2022-11-17T09:23:37.610Z,99079.47
2022-11-17T09:26:11.582Z,99061.75
2022-11-17T09:28:39.356Z,99024.72
2022-11-17T09:31:18.702Z,99052.75
2022-11-17T09:33:46.284Z,99048.72
2022-11-17T09:36:16.702Z,99070.16
2022-11-17T09:38:44.773Z,99054.56
2022-11-17T09:41:22.197Z,99024.91
2022-11-17T09:44:02.460Z,99063.88
2022-11-17T09:47:06.124Z,99073.53
2022-11-17T09:49:55.241Z,99051.59
2022-11-17T09:52:41.102Z,99072.31
2022-11-17T09:55:08.347Z,99075.84
2022-11-17T09:57:45.073Z,99063.09
2022-11-17T10:00:16.775Z,99052.09
2022-11-17T10:02:45.597Z,99049.38
2022-11-17T10:05:14.352Z,98997.63
2022-11-17T10:07:47.990Z,99025.84
2022-11-17T10:10:31.004Z,99028.84
2022-11-17T10:12:58.754Z,99026.56
2022-11-17T10:15:30.742Z,99039.78
2022-11-17T10:17:58.060Z,99006.38
2022-11-17T10:20:25.265Z,99031.50
2022-11-17T10:22:54.538Z,99023.31
2022-11-17T10:25:43.934Z,99049.22
2022-11-17T10:28:32.311Z,99008.13
2022-11-17T10:31:10.206Z,99021.75
2022-11-17T10:33:44.124Z,98988.81
2022-11-17T10:36:14.459Z,99006.53
2022-11-17T10:38:47.161Z,98992.75
2022-11-17T10:41:18.776Z,98925.59
2022-11-17T10:44:03.282Z,98985.19
2022-11-17T10:46:41.585Z,98959.84
2022-11-17T10:49:33.636Z,98989.81
2022-11-17T10:52:19.105Z,98942.66
2022-11-17T10:54:46.468Z,98961.91
2022-11-17T10:57:21.708Z,98958.22
2022-11-17T10:59:56.894Z,98930.53
2022-11-17T11:02:34.570Z,98974.91
2022-11-17T11:05:17.439Z,98980.75
2022-11-17T11:07:45.149Z,98982.16
2022-11-17T11:10:33.394Z,99008.78
2022-11-17T11:13:00.748Z,99011.09
2022-11-17T11:15:33.458Z,98990.72
2022-11-17T11:18:01.081Z,99013.16
2022-11-17T11:20:45.852Z,98981.34
2022-11-17T11:23:16.090Z,99013.22
2022-11-17T11:25:57.317Z,99015.19
2022-11-17T11:28:39.013Z,99012.84
2022-11-17T11:31:13.384Z,99019.38
2022-11-17T11:34:23.747Z,99028.59
2022-11-17T11:36:55.745Z,99005.22
2022-11-17T11:39:43.165Z,99008.38
2022-11-17T11:42:36.002Z,99027.53
2022-11-17T11:45:22.141Z,99032.41
2022-11-17T11:48:07.868Z,99025.00
2022-11-17T11:50:57.910Z,99031.66
2022-11-17T11:53:31.917Z,99023.31
2022-11-17T11:56:11.297Z,99028.31
2022-11-17T11:58:45.150Z,99004.38
2022-11-17T12:01:14.714Z,98977.00
2022-11-17T12:03:56.851Z,99000.38
2022-11-17T12:06:42.787Z,99001.03
2022-11-17T12:09:40.016Z,99025.09
2022-11-17T12:12:13.455Z,98993.81
2022-11-17T12:15:12.884Z,99021.47
2022-11-17T12:17:51.992Z,99013.22
2022-11-17T12:20:51.403Z,99001.13
2022-11-17T12:23:37.501Z,99016.72
2022-11-17T12:26:05.273Z,99002.53
2022-11-17T12:28:40.800Z,98993.19
2022-11-17T12:31:32.568Z,99005.25
2022-11-17T12:33:59.948Z,99010.66
2022-11-17T12:36:36.894Z,98987.59
2022-11-17T12:39:08.929Z,99010.75
2022-11-17T12:41:48.092Z,99010.75
2022-11-17T12:44:37.300Z,99012.72
2022-11-17T12:47:14.180Z,99017.25
2022-11-17T12:50:07.901Z,98938.13
2022-11-17T12:52:47.389Z,99023.94
2022-11-17T12:55:33.113Z,99024.97
2022-11-17T12:58:21.557Z,99019.03
2022-11-17T13:01:03.100Z,98983.66
2022-11-17T13:03:38.903Z,98998.69
2022-11-17T13:06:34.225Z,98973.19
2022-11-17T13:09:21.610Z,99014.44
2022-11-17T13:12:06.199Z,98995.53
2022-11-17T13:14:51.476Z,98976.81
2022-11-17T13:17:21.997Z,99018.09
2022-11-17T13:20:01.637Z,98984.44
2022-11-17T13:22:29.111Z,98997.16
2022-11-17T13:24:57.913Z,98990.84
2022-11-17T13:27:31.994Z,99027.41
2022-11-17T13:30:30.128Z,99027.38
2022-11-17T13:33:00.873Z,99032.72
2022-11-17T13:35:33.974Z,98981.91
2022-11-17T13:38:22.862Z,99013.91
2022-11-17T13:40:51.977Z,99035.13
2022-11-17T13:43:24.274Z,98935.81
2022-11-17T13:45:53.965Z,98945.13
2022-11-17T13:48:34.329Z,99026.72
2022-11-17T13:51:20.140Z,99032.09
2022-11-17T13:53:53.225Z,99037.41
2022-11-17T13:56:32.168Z,99041.50
2022-11-17T13:59:02.659Z,99033.41
2022-11-17T14:01:31.413Z,99013.09
2022-11-17T14:04:20.073Z,99035.19
2022-11-17T14:06:57.448Z,99018.19
2022-11-17T14:09:27.858Z,99022.69
2022-11-17T14:11:55.772Z,98991.53
2022-11-17T14:14:32.788Z,99047.97
2022-11-17T14:17:18.752Z,99033.53
2022-11-17T14:19:46.688Z,99041.75
2022-11-17T14:22:21.348Z,99049.47
2022-11-17T14:24:51.897Z,99031.78
2022-11-17T14:27:31.983Z,99059.78
2022-11-17T14:29:59.304Z,99045.31
2022-11-17T14:32:26.727Z,99029.38
2022-11-17T14:34:54.080Z,99041.75
2022-11-17T14:37:21.440Z,99058.78
2022-11-17T14:39:48.927Z,99041.31
2022-11-17T14:42:16.284Z,99089.69
2022-11-17T14:44:43.661Z,99060.34
2022-11-17T14:47:11.042Z,99056.69
2022-11-17T14:49:38.361Z,99016.44
2022-11-17T14:52:05.666Z,99078.31
2022-11-17T14:54:33.053Z,99081.41
2022-11-17T14:57:00.417Z,99070.00
2022-11-17T14:59:27.761Z,99071.59
2022-11-17T15:01:55.117Z,99079.72
2022-11-17T15:04:49.014Z,99057.75
2022-11-17T15:07:09.991Z,99088.22
2022-11-17T15:09:37.356Z,99075.41
2022-11-17T15:12:04.893Z,99061.81
2022-11-17T15:14:32.400Z,99074.06
2022-11-17T15:16:59.734Z,99036.03
2022-11-17T15:19:27.174Z,99095.03
2022-11-17T15:21:54.594Z,99110.06
2022-11-17T15:24:22.182Z,99115.16
2022-11-17T15:26:49.628Z,99088.16
2022-11-17T15:29:17.232Z,99104.66
2022-11-17T15:31:45.033Z,99091.91
2022-11-17T15:34:19.723Z,99096.56
2022-11-17T15:36:48.542Z,99067.22
2022-11-17T15:39:16.808Z,99065.38
2022-11-17T15:41:44.761Z,99109.56
2022-11-17T15:44:12.064Z,99056.44
2022-11-17T15:46:44.287Z,99109.78
2022-11-17T15:49:14.692Z,99064.94
2022-11-17T15:55:49.392Z,99120.53
2022-11-17T15:58:16.711Z,99108.91
2022-11-17T16:00:44.167Z,99136.66
2022-11-17T16:03:11.529Z,99098.31
2022-11-17T16:05:39.071Z,99113.03
2022-11-17T16:08:06.524Z,99141.25
2022-11-17T16:10:33.892Z,99086.88
2022-11-17T16:13:01.320Z,99146.66
2022-11-17T16:15:28.948Z,99119.63
2022-11-17T16:17:56.254Z,99096.06
2022-11-17T16:20:23.668Z,99111.91
2022-11-17T16:22:51.004Z,99115.81
2022-11-17T16:25:18.349Z,99121.72
2022-11-17T16:27:46.285Z,99131.72
2022-11-17T16:30:14.004Z,99126.75
2022-11-17T16:32:41.293Z,99115.38
2022-11-17T16:35:08.938Z,99145.31
2022-11-17T16:37:36.275Z,99171.16
2022-11-17T16:40:04.929Z,99130.31
2022-11-17T16:42:32.660Z,99105.59
2022-11-17T16:45:00.375Z,99143.59
2022-11-17T16:47:28.665Z,99110.84
2022-11-17T16:49:56.084Z,99154.88
2022-11-17T16:52:23.400Z,99127.06
2022-11-17T16:54:50.784Z,99114.31
2022-11-17T16:57:18.222Z,99096.13
2022-11-17T16:59:45.509Z,99133.00
2022-11-17T17:02:13.084Z,99154.81
2022-11-17T17:04:40.496Z,99110.56
2022-11-17T17:07:07.838Z,99136.53
2022-11-17T17:09:37.326Z,99128.66
2022-11-17T17:12:05.173Z,99078.13
2022-11-17T17:14:32.473Z,99109.44
2022-11-17T17:16:59.864Z,99116.22
2022-11-17T17:19:27.335Z,99125.22
2022-11-17T17:21:54.998Z,99115.88
2022-11-17T17:24:22.401Z,99096.59
2022-11-17T17:26:49.726Z,99066.50
2022-11-17T17:29:17.271Z,99090.97
2022-11-17T17:31:44.787Z,99066.84
2022-11-17T17:34:12.844Z,99057.03
2022-11-17T17:36:40.439Z,99079.09
2022-11-17T17:39:08.094Z,99065.78
2022-11-17T17:41:39.705Z,99066.44
2022-11-17T17:44:08.488Z,99092.72
2022-11-17T17:46:37.987Z,99101.38
2022-11-17T17:49:06.209Z,99108.16
2022-11-17T17:51:37.393Z,99086.13
2022-11-17T17:54:04.875Z,99071.94
2022-11-17T17:56:33.997Z,99122.75
2022-11-17T17:59:01.449Z,99098.75
2022-11-17T18:01:33.081Z,99113.88
2022-11-17T18:04:04.793Z,99119.50
2022-11-17T18:06:38.353Z,99100.53
2022-11-17T18:09:07.902Z,99113.13
2022-11-17T18:11:35.793Z,99091.50
2022-11-17T18:14:04.510Z,99114.47
2022-11-17T18:16:33.867Z,99097.88
2022-11-17T18:19:06.397Z,99116.03
2022-11-17T18:21:34.583Z,99107.03
2022-11-17T18:24:02.736Z,99115.06
2022-11-17T18:26:32.856Z,99117.59
2022-11-17T18:29:06.805Z,99117.53
2022-11-17T18:31:36.058Z,99107.56
2022-11-17T18:34:21.108Z,99117.91
2022-11-17T18:36:53.388Z,99133.91
2022-11-17T18:39:21.388Z,99113.25
2022-11-17T18:41:48.774Z,99087.84
2022-11-17T18:44:18.467Z,99097.13
2022-11-17T18:46:46.444Z,99113.94
2022-11-17T18:49:14.522Z,99099.81
2022-11-17T18:51:42.250Z,99094.41
2022-11-17T18:54:12.972Z,99113.94
2022-11-17T18:56:40.517Z,99097.78
2022-11-17T18:59:11.392Z,99095.81
2022-11-17T19:01:43.170Z,99084.94
2022-11-17T19:04:14.141Z,99089.09
2022-11-17T19:06:42.111Z,99076.78
2022-11-17T19:09:09.554Z,99103.50
2022-11-17T19:11:37.089Z,99100.47
2022-11-17T19:16:44.504Z,99107.50
2022-11-17T19:19:13.683Z,99125.31
2022-11-17T19:21:41.868Z,99119.47
2022-11-17T19:24:09.236Z,99115.78
2022-11-17T19:26:36.677Z,99125.97
2022-11-17T19:29:09.897Z,99134.91
2022-11-17T19:31:40.173Z,99085.78
2022-11-17T19:34:07.552Z,99110.22
2022-11-17T19:36:35.318Z,99114.38
2022-11-17T19:39:03.820Z,99095.06
2022-11-17T19:41:36.788Z,99103.41
2022-11-17T19:44:06.874Z,99100.03
2022-11-17T19:46:36.294Z,99107.22
2022-11-17T19:49:05.948Z,99126.41
2022-11-17T19:51:38.529Z,99116.66
2022-11-17T19:54:07.835Z,99074.53
2022-11-17T19:56:35.952Z,99095.22
2022-11-17T19:59:03.543Z,99114.97
2022-11-17T20:01:32.332Z,99118.63
2022-11-17T20:04:01.101Z,99091.22
2022-11-17T20:06:32.023Z,99084.66
2022-11-17T20:08:59.458Z,99122.03
2022-11-17T20:11:28.297Z,99121.44
2022-11-17T20:13:56.283Z,99096.81
2022-11-17T20:16:25.912Z,99043.97
2022-11-17T20:18:55.404Z,99102.63
2022-11-17T20:21:24.060Z,99123.59
2022-11-17T20:23:51.561Z,99080.00
2022-11-17T20:26:20.017Z,99113.25
2022-11-17T20:28:48.010Z,99097.59
2022-11-17T20:31:35.480Z,99114.38
2022-11-17T20:34:05.329Z,99094.63
2022-11-17T20:36:34.144Z,99090.88
2022-11-17T20:39:04.161Z,99110.69
2022-11-17T20:41:31.891Z,99118.47
2022-11-17T20:44:00.545Z,99111.81
2022-11-17T20:46:28.241Z,99112.09
2022-11-17T20:48:55.745Z,99123.84
2022-11-17T20:51:24.947Z,99111.56
2022-11-17T20:53:52.450Z,99119.97
2022-11-17T20:56:20.264Z,99122.88
2022-11-17T20:58:47.740Z,99103.13
2022-11-17T21:01:17.932Z,99068.53
2022-11-17T21:03:46.071Z,99119.75
2022-11-17T21:06:14.383Z,99118.75
2022-11-17T21:08:43.384Z,99117.59
2022-11-17T21:11:37.998Z,99096.88
2022-11-17T21:14:08.222Z,99111.66
2022-11-17T21:16:38.017Z,99109.50
2022-11-17T21:19:06.099Z,99132.06
2022-11-17T21:21:33.792Z,99113.69
2022-11-17T21:24:01.365Z,99110.16
2022-11-17T21:26:28.693Z,99124.00
2022-11-17T21:29:00.461Z,99119.09
2022-11-17T21:31:31.856Z,99106.88
2022-11-17T21:34:02.097Z,99108.94
2022-11-17T21:36:31.113Z,99114.09
2022-11-17T21:38:59.049Z,99083.91
2022-11-17T21:41:28.532Z,99118.16
2022-11-17T21:44:00.154Z,99089.81
2022-11-17T21:46:30.233Z,99109.44
2022-11-17T21:48:58.993Z,99072.38
2022-11-17T21:51:38.506Z,99096.03
2022-11-17T21:54:09.916Z,99103.97
2022-11-17T21:56:37.521Z,99072.31
2022-11-17T21:59:09.864Z,99102.19
2022-11-17T22:01:37.996Z,99098.25
2022-11-17T22:04:05.677Z,99084.94
2022-11-17T22:06:33.015Z,99073.91
2022-11-17T22:09:00.834Z,99081.47
2022-11-17T22:11:36.749Z,99097.88
2022-11-17T22:14:13.210Z,99093.25
2022-11-17T22:16:53.613Z,99092.22
2022-11-17T22:19:23.351Z,99039.47
2022-11-17T22:21:52.528Z,99049.38
2022-11-17T22:24:21.243Z,99072.91
2022-11-17T22:26:48.813Z,99047.22
2022-11-17T22:29:18.706Z,99073.19
2022-11-17T22:31:48.677Z,99041.38
2022-11-17T22:34:17.074Z,99080.69
2022-11-17T22:36:44.621Z,99052.34
2022-11-17T22:39:11.919Z,99066.84
2022-11-17T22:41:39.497Z,99073.50
2022-11-17T22:44:07.186Z,99059.19
2022-11-17T22:46:35.178Z,99083.94
2022-11-17T22:49:03.273Z,99065.69
2022-11-17T22:51:49.165Z,99092.06
2022-11-17T22:54:16.817Z,99079.19
2022-11-17T22:56:44.939Z,99086.78
2022-11-17T22:59:12.421Z,99065.28
2022-11-17T23:01:39.777Z,99078.88
2022-11-17T23:04:07.213Z,99062.53
2022-11-17T23:06:34.724Z,99067.84
2022-11-17T23:09:02.033Z,99031.25
2022-11-17T23:11:37.181Z,99048.72
2022-11-17T23:14:08.031Z,99031.84
2022-11-17T23:16:37.479Z,99042.06
2022-11-17T23:19:05.739Z,99029.91
2022-11-17T23:21:33.101Z,99042.56
2022-11-17T23:24:00.601Z,98982.19
2022-11-17T23:26:27.944Z,99020.47
2022-11-17T23:28:55.361Z,99028.16
2022-11-17T23:31:22.724Z,99035.03
2022-11-17T23:33:50.101Z,98997.47
2022-11-17T23:36:21.957Z,99019.69
2022-11-17T23:38:50.787Z,99031.69
2022-11-17T23:41:20.402Z,99050.41
2022-11-17T23:43:52.391Z,99044.50
2022-11-17T23:46:22.389Z,99023.34
2022-11-17T23:48:50.004Z,99030.75
2022-11-17T23:51:21.976Z,99013.09
2022-11-17T23:53:52.078Z,99032.72
2022-11-17T23:56:20.544Z,99035.19
2022-11-17T23:58:48.277Z,99036.03
